• Join FlightAware (Why Join?)
  • Login
  • US Flag 
10:42PM EDT


 

Airport Tracker/Info


-or-


 

Live Flight TrackerFlight Track Log ✈ N9191V ✈ 14-Jul-2013 ✈ KALB - KRUT

Flight Track Log - Related Links

Times and Time Zones

All times are in EDT time to prevent confusion due to time zone crossing. See the N9191V flight status page for this flight to view local times or setup timezone preferences in your user account.

Time Position Orientation Groundspeed Altitude Reporting Facility
EDT Latitude Longitude Course Direction KTS MPH feet Rate Location/Type
09:32AM 42.7631 -73.8061 North 111 128 800  Level Boston Center
09:33AM 42.8028 -73.8042 North 111 128 1,500 540 Climbing Boston Center
09:34AM 42.8319 -73.7992 North 114 131 2,000 480 Climbing Boston Center
09:35AM 42.8553 -73.7742 38° Northeast 119 137 2,500 540 Climbing Boston Center
09:36AM 42.8786 -73.7406 47° Northeast 119 137 3,100 540 Climbing Boston Center
09:37AM 42.8914 -73.7011 66° East 124 143 3,700 540 Climbing Boston Center
09:38AM 42.8919 -73.6531 89° East 126 145 4,300 660 Climbing Boston Center
09:39AM 42.9050 -73.6192 62° Northeast 117 135 5,000 600 Climbing Boston Center
09:40AM 42.9300 -73.5969 33° Northeast 112 129 5,500 480 Climbing Boston Center
09:41AM 42.9594 -73.5719 32° Northeast 121 139 6,000 480 Climbing Boston Center
09:42AM 42.9892 -73.5414 37° Northeast 123 142 6,500 480 Climbing Boston Center
09:43AM 43.0164 -73.5136 37° Northeast 123 142 7,000 240 Climbing Boston Center
09:44AM 43.0481 -73.4828 35° Northeast 133 153 7,000  Level Boston Center
09:46AM 43.0964 -73.4325 37° Northeast 174 200 7,000  Level Boston Center
09:47AM 43.1300 -73.4017 34° Northeast 174 200 7,000  Level Boston Center
09:49AM 43.1621 -73.3598 44° Northeast  Level FlightAware Approximate
09:56AM 43.2921 -73.2000 North  Level FlightAware Approximate
09:57AM 43.3125 -73.1834 44° Northeast  Level FlightAware Approximate
09:58AM 43.3306 -73.1592 44° Northeast  Level FlightAware Approximate
09:59AM 43.3488 -73.1349 44° Northeast  Level FlightAware Approximate
10:00AM 43.3683 -73.1128 39° Northeast  Level FlightAware Approximate
10:01AM 43.3879 -73.0908 39° Northeast  Level FlightAware Approximate
10:02AM 43.4075 -73.0687 39° Northeast  Level FlightAware Approximate
10:03AM 43.4271 -73.0467 39° Northeast  Level FlightAware Approximate
10:04AM 43.4467 -73.0247 39° Northeast  Level FlightAware Approximate
10:05AM 43.4663 -73.0026 39° Northeast  Level FlightAware Approximate
10:06AM 43.4855 -72.9800 47° Northeast  Level FlightAware Approximate
10:07AM 43.5027 -72.9544 47° Northeast  Level FlightAware Approximate
10:08AM 43.5167 -72.9333 47° Northeast  Level FlightAware Approximate
10:09AM 43.5299 -72.9496 47° Northeast  Level Estimated
10:10AM 43.5299 -72.9496 47° Northeast  Level Estimated
10:11AM 43.5299 -72.9496 47° Northeast  Level Estimated
10:12AM 43.5299 -72.9496 47° Northeast  Level Estimated
10:13AM 43.5299 -72.9496 47° Northeast  Level Estimated
10:14AM 43.5299 -72.9496 47° Northeast  Level Estimated